sensor_id;sensor_type;location;lat;lon;timestamp;P1;durP1;ratioP1;P2;durP2;ratioP2
19854;SDS011;10088;47.946;2.532;2023-04-15T00:00:13;4.60;;;3.27;;
19854;SDS011;10088;47.946;2.532;2023-04-15T00:02:40;11.43;;;3.33;;
19854;SDS011;10088;47.946;2.532;2023-04-15T00:05:05;5.43;;;3.07;;
19854;SDS011;10088;47.946;2.532;2023-04-15T00:07:30;6.30;;;3.50;;
19854;SDS011;10088;47.946;2.532;2023-04-15T00:09:57;6.40;;;3.10;;
19854;SDS011;10088;47.946;2.532;2023-04-15T00:12:25;4.73;;;3.20;;
19854;SDS011;10088;47.946;2.532;2023-04-15T00:14:50;5.90;;;3.17;;
19854;SDS011;10088;47.946;2.532;2023-04-15T00:17:16;4.60;;;2.80;;
19854;SDS011;10088;47.946;2.532;2023-04-15T00:19:41;5.57;;;3.13;;
19854;SDS011;10088;47.946;2.532;2023-04-15T00:22:08;5.70;;;2.90;;
19854;SDS011;10088;47.946;2.532;2023-04-15T00:24:33;4.93;;;2.47;;
19854;SDS011;10088;47.946;2.532;2023-04-15T00:26:58;5.87;;;3.37;;
19854;SDS011;10088;47.946;2.532;2023-04-15T00:29:24;6.10;;;3.37;;
19854;SDS011;10088;47.946;2.532;2023-04-15T00:31:49;7.27;;;3.40;;
19854;SDS011;10088;47.946;2.532;2023-04-15T00:34:15;7.87;;;3.43;;
19854;SDS011;10088;47.946;2.532;2023-04-15T00:36:40;4.87;;;3.00;;
19854;SDS011;10088;47.946;2.532;2023-04-15T00:39:06;7.57;;;3.30;;
19854;SDS011;10088;47.946;2.532;2023-04-15T00:41:31;9.07;;;3.50;;
19854;SDS011;10088;47.946;2.532;2023-04-15T00:43:58;6.47;;;3.70;;
19854;SDS011;10088;47.946;2.532;2023-04-15T00:46:24;7.03;;;3.03;;
19854;SDS011;10088;47.946;2.532;2023-04-15T00:48:51;5.20;;;2.90;;
19854;SDS011;10088;47.946;2.532;2023-04-15T00:51:16;7.60;;;3.53;;
19854;SDS011;10088;47.946;2.532;2023-04-15T00:53:41;6.27;;;3.53;;
19854;SDS011;10088;47.946;2.532;2023-04-15T00:56:07;6.77;;;4.00;;
19854;SDS011;10088;47.946;2.532;2023-04-15T00:58:33;6.00;;;3.30;;
19854;SDS011;10088;47.946;2.532;2023-04-15T01:00:58;7.37;;;3.73;;
19854;SDS011;10088;47.946;2.532;2023-04-15T01:03:24;7.50;;;3.50;;
19854;SDS011;10088;47.946;2.532;2023-04-15T01:05:49;7.43;;;3.93;;
19854;SDS011;10088;47.946;2.532;2023-04-15T01:08:15;6.57;;;3.77;;
19854;SDS011;10088;47.946;2.532;2023-04-15T01:10:40;5.90;;;3.40;;
19854;SDS011;10088;47.946;2.532;2023-04-15T01:13:05;7.27;;;3.20;;
19854;SDS011;10088;47.946;2.532;2023-04-15T01:15:31;4.90;;;3.47;;
19854;SDS011;10088;47.946;2.532;2023-04-15T01:17:57;5.73;;;3.60;;
19854;SDS011;10088;47.946;2.532;2023-04-15T01:20:22;5.83;;;2.90;;
19854;SDS011;10088;47.946;2.532;2023-04-15T01:22:48;6.27;;;3.40;;
19854;SDS011;10088;47.946;2.532;2023-04-15T01:25:16;4.87;;;2.97;;
19854;SDS011;10088;47.946;2.532;2023-04-15T01:27:42;5.20;;;3.33;;
19854;SDS011;10088;47.946;2.532;2023-04-15T01:30:07;5.27;;;3.13;;
19854;SDS011;10088;47.946;2.532;2023-04-15T01:32:33;5.93;;;3.00;;
19854;SDS011;10088;47.946;2.532;2023-04-15T01:34:58;5.40;;;2.93;;
19854;SDS011;10088;47.946;2.532;2023-04-15T01:37:23;6.17;;;3.03;;
19854;SDS011;10088;47.946;2.532;2023-04-15T01:39:50;5.23;;;2.57;;
19854;SDS011;10088;47.946;2.532;2023-04-15T01:42:15;4.43;;;3.17;;
19854;SDS011;10088;47.946;2.532;2023-04-15T01:44:41;5.90;;;2.93;;
19854;SDS011;10088;47.946;2.532;2023-04-15T01:47:06;5.63;;;2.93;;
19854;SDS011;10088;47.946;2.532;2023-04-15T01:49:31;6.10;;;3.30;;
19854;SDS011;10088;47.946;2.532;2023-04-15T01:51:56;4.40;;;2.40;;
19854;SDS011;10088;47.946;2.532;2023-04-15T01:54:22;5.30;;;2.10;;
19854;SDS011;10088;47.946;2.532;2023-04-15T01:56:47;4.10;;;2.57;;
19854;SDS011;10088;47.946;2.532;2023-04-15T01:59:13;3.47;;;2.60;;
19854;SDS011;10088;47.946;2.532;2023-04-15T02:01:38;7.00;;;2.30;;
19854;SDS011;10088;47.946;2.532;2023-04-15T02:04:03;6.07;;;2.57;;
19854;SDS011;10088;47.946;2.532;2023-04-15T02:06:29;2.57;;;1.90;;
19854;SDS011;10088;47.946;2.532;2023-04-15T02:08:54;2.27;;;1.70;;
19854;SDS011;10088;47.946;2.532;2023-04-15T02:11:19;2.77;;;1.53;;
19854;SDS011;10088;47.946;2.532;2023-04-15T02:13:45;5.67;;;2.20;;
19854;SDS011;10088;47.946;2.532;2023-04-15T02:16:17;6.70;;;1.87;;
19854;SDS011;10088;47.946;2.532;2023-04-15T02:18:45;4.53;;;2.00;;
19854;SDS011;10088;47.946;2.532;2023-04-15T02:21:11;5.47;;;1.80;;
19854;SDS011;10088;47.946;2.532;2023-04-15T02:23:37;2.97;;;2.00;;
19854;SDS011;10088;47.946;2.532;2023-04-15T02:26:02;3.23;;;1.53;;
19854;SDS011;10088;47.946;2.532;2023-04-15T02:28:27;2.57;;;1.37;;
19854;SDS011;10088;47.946;2.532;2023-04-15T02:30:53;1.20;;;1.00;;
19854;SDS011;10088;47.946;2.532;2023-04-15T02:33:21;1.97;;;1.10;;
19854;SDS011;10088;47.946;2.532;2023-04-15T02:35:46;1.70;;;0.93;;
19854;SDS011;10088;47.946;2.532;2023-04-15T02:38:11;1.03;;;0.73;;
19854;SDS011;10088;47.946;2.532;2023-04-15T02:40:38;2.03;;;0.80;;
19854;SDS011;10088;47.946;2.532;2023-04-15T02:43:03;1.87;;;0.60;;
19854;SDS011;10088;47.946;2.532;2023-04-15T02:45:31;1.90;;;1.13;;
19854;SDS011;10088;47.946;2.532;2023-04-15T02:47:57;2.57;;;0.93;;
19854;SDS011;10088;47.946;2.532;2023-04-15T02:50:23;3.90;;;1.07;;
19854;SDS011;10088;47.946;2.532;2023-04-15T02:52:49;3.13;;;1.20;;
19854;SDS011;10088;47.946;2.532;2023-04-15T02:55:16;1.70;;;1.00;;
19854;SDS011;10088;47.946;2.532;2023-04-15T02:57:42;2.03;;;1.00;;
19854;SDS011;10088;47.946;2.532;2023-04-15T03:00:07;3.57;;;1.27;;
19854;SDS011;10088;47.946;2.532;2023-04-15T03:02:36;3.70;;;1.00;;
19854;SDS011;10088;47.946;2.532;2023-04-15T03:05:01;4.07;;;1.30;;
19854;SDS011;10088;47.946;2.532;2023-04-15T03:07:26;1.77;;;1.00;;
19854;SDS011;10088;47.946;2.532;2023-04-15T03:09:52;4.90;;;1.67;;
19854;SDS011;10088;47.946;2.532;2023-04-15T03:12:17;3.10;;;1.37;;
19854;SDS011;10088;47.946;2.532;2023-04-15T03:14:42;11.27;;;1.80;;
19854;SDS011;10088;47.946;2.532;2023-04-15T03:17:07;4.87;;;1.80;;
19854;SDS011;10088;47.946;2.532;2023-04-15T03:19:33;6.83;;;1.70;;
19854;SDS011;10088;47.946;2.532;2023-04-15T03:21:58;4.40;;;1.83;;
19854;SDS011;10088;47.946;2.532;2023-04-15T03:24:23;4.17;;;1.90;;
19854;SDS011;10088;47.946;2.532;2023-04-15T03:26:49;2.00;;;1.60;;
19854;SDS011;10088;47.946;2.532;2023-04-15T03:29:14;1.97;;;1.43;;
19854;SDS011;10088;47.946;2.532;2023-04-15T03:31:39;3.43;;;1.50;;
19854;SDS011;10088;47.946;2.532;2023-04-15T03:34:05;2.70;;;1.57;;
19854;SDS011;10088;47.946;2.532;2023-04-15T03:36:30;2.27;;;1.67;;
19854;SDS011;10088;47.946;2.532;2023-04-15T03:38:59;4.77;;;2.03;;
19854;SDS011;10088;47.946;2.532;2023-04-15T03:41:26;6.00;;;1.90;;
19854;SDS011;10088;47.946;2.532;2023-04-15T03:43:52;5.20;;;1.90;;
19854;SDS011;10088;47.946;2.532;2023-04-15T03:46:17;3.70;;;2.07;;
19854;SDS011;10088;47.946;2.532;2023-04-15T03:48:43;5.53;;;2.00;;
19854;SDS011;10088;47.946;2.532;2023-04-15T03:51:08;4.83;;;2.17;;
19854;SDS011;10088;47.946;2.532;2023-04-15T03:53:33;2.00;;;1.70;;
19854;SDS011;10088;47.946;2.532;2023-04-15T03:55:58;4.30;;;1.70;;
19854;SDS011;10088;47.946;2.532;2023-04-15T03:58:24;4.47;;;2.20;;
19854;SDS011;10088;47.946;2.532;2023-04-15T04:00:49;4.20;;;2.00;;
19854;SDS011;10088;47.946;2.532;2023-04-15T04:03:15;3.93;;;1.87;;
19854;SDS011;10088;47.946;2.532;2023-04-15T04:05:40;5.93;;;2.40;;
19854;SDS011;10088;47.946;2.532;2023-04-15T04:08:06;3.23;;;2.00;;
19854;SDS011;10088;47.946;2.532;2023-04-15T04:10:31;2.83;;;2.10;;
19854;SDS011;10088;47.946;2.532;2023-04-15T04:12:56;3.13;;;2.37;;
19854;SDS011;10088;47.946;2.532;2023-04-15T04:15:22;7.17;;;2.30;;
19854;SDS011;10088;47.946;2.532;2023-04-15T04:17:47;2.03;;;1.83;;
19854;SDS011;10088;47.946;2.532;2023-04-15T04:20:12;5.17;;;1.43;;
19854;SDS011;10088;47.946;2.532;2023-04-15T04:22:38;2.90;;;1.77;;
19854;SDS011;10088;47.946;2.532;2023-04-15T04:25:06;3.77;;;1.57;;
19854;SDS011;10088;47.946;2.532;2023-04-15T04:27:32;4.60;;;1.73;;
19854;SDS011;10088;47.946;2.532;2023-04-15T04:29:58;4.87;;;1.53;;
19854;SDS011;10088;47.946;2.532;2023-04-15T04:32:23;4.30;;;1.60;;
19854;SDS011;10088;47.946;2.532;2023-04-15T04:34:48;2.77;;;1.43;;
19854;SDS011;10088;47.946;2.532;2023-04-15T04:37:14;3.50;;;1.67;;
19854;SDS011;10088;47.946;2.532;2023-04-15T04:39:39;3.27;;;1.40;;
19854;SDS011;10088;47.946;2.532;2023-04-15T04:42:04;4.50;;;1.90;;
19854;SDS011;10088;47.946;2.532;2023-04-15T04:44:30;3.00;;;1.80;;
19854;SDS011;10088;47.946;2.532;2023-04-15T04:46:55;2.63;;;1.63;;
19854;SDS011;10088;47.946;2.532;2023-04-15T04:49:20;5.87;;;1.37;;
19854;SDS011;10088;47.946;2.532;2023-04-15T04:51:46;1.83;;;1.00;;
19854;SDS011;10088;47.946;2.532;2023-04-15T04:54:12;2.37;;;1.30;;
19854;SDS011;10088;47.946;2.532;2023-04-15T04:56:37;2.23;;;1.30;;
19854;SDS011;10088;47.946;2.532;2023-04-15T04:59:04;1.83;;;1.30;;
19854;SDS011;10088;47.946;2.532;2023-04-15T05:01:29;1.83;;;0.97;;
19854;SDS011;10088;47.946;2.532;2023-04-15T05:03:54;2.57;;;1.30;;
19854;SDS011;10088;47.946;2.532;2023-04-15T05:06:20;2.53;;;1.30;;
19854;SDS011;10088;47.946;2.532;2023-04-15T05:08:46;2.43;;;1.10;;
19854;SDS011;10088;47.946;2.532;2023-04-15T05:11:12;2.80;;;1.33;;
19854;SDS011;10088;47.946;2.532;2023-04-15T05:13:37;1.10;;;1.00;;
19854;SDS011;10088;47.946;2.532;2023-04-15T05:16:05;1.63;;;1.07;;
19854;SDS011;10088;47.946;2.532;2023-04-15T05:18:31;3.37;;;0.97;;
19854;SDS011;10088;47.946;2.532;2023-04-15T05:20:58;2.30;;;1.10;;
19854;SDS011;10088;47.946;2.532;2023-04-15T05:23:23;5.10;;;1.17;;
19854;SDS011;10088;47.946;2.532;2023-04-15T05:25:49;2.33;;;1.23;;
19854;SDS011;10088;47.946;2.532;2023-04-15T05:28:14;1.87;;;1.00;;
19854;SDS011;10088;47.946;2.532;2023-04-15T05:30:39;4.83;;;1.40;;
19854;SDS011;10088;47.946;2.532;2023-04-15T05:33:05;3.57;;;1.30;;
19854;SDS011;10088;47.946;2.532;2023-04-15T05:35:30;4.60;;;1.33;;
19854;SDS011;10088;47.946;2.532;2023-04-15T05:37:55;2.67;;;1.20;;
19854;SDS011;10088;47.946;2.532;2023-04-15T05:40:21;4.57;;;1.40;;
19854;SDS011;10088;47.946;2.532;2023-04-15T05:42:46;1.67;;;1.23;;
19854;SDS011;10088;47.946;2.532;2023-04-15T05:45:11;3.33;;;1.10;;
19854;SDS011;10088;47.946;2.532;2023-04-15T05:47:37;3.40;;;1.53;;
19854;SDS011;10088;47.946;2.532;2023-04-15T05:50:03;4.77;;;1.50;;
19854;SDS011;10088;47.946;2.532;2023-04-15T05:52:29;3.00;;;1.57;;
19854;SDS011;10088;47.946;2.532;2023-04-15T05:54:54;2.50;;;1.63;;
19854;SDS011;10088;47.946;2.532;2023-04-15T05:57:20;4.93;;;1.60;;
19854;SDS011;10088;47.946;2.532;2023-04-15T05:59:45;3.23;;;1.63;;
19854;SDS011;10088;47.946;2.532;2023-04-15T06:02:11;2.90;;;1.50;;
19854;SDS011;10088;47.946;2.532;2023-04-15T06:04:36;2.90;;;1.63;;
19854;SDS011;10088;47.946;2.532;2023-04-15T06:07:01;3.57;;;1.73;;
19854;SDS011;10088;47.946;2.532;2023-04-15T06:09:27;1.73;;;1.63;;
19854;SDS011;10088;47.946;2.532;2023-04-15T06:11:53;3.27;;;1.90;;
19854;SDS011;10088;47.946;2.532;2023-04-15T06:14:18;3.00;;;1.90;;
19854;SDS011;10088;47.946;2.532;2023-04-15T06:16:43;4.10;;;2.27;;
19854;SDS011;10088;47.946;2.532;2023-04-15T06:19:09;5.03;;;1.97;;
19854;SDS011;10088;47.946;2.532;2023-04-15T06:21:34;3.93;;;2.23;;
19854;SDS011;10088;47.946;2.532;2023-04-15T06:23:59;3.63;;;2.17;;
19854;SDS011;10088;47.946;2.532;2023-04-15T06:26:25;4.43;;;2.30;;
19854;SDS011;10088;47.946;2.532;2023-04-15T06:28:51;2.30;;;2.10;;
19854;SDS011;10088;47.946;2.532;2023-04-15T06:31:16;3.77;;;2.40;;
19854;SDS011;10088;47.946;2.532;2023-04-15T06:33:41;3.30;;;2.20;;
19854;SDS011;10088;47.946;2.532;2023-04-15T06:36:07;3.63;;;2.93;;
19854;SDS011;10088;47.946;2.532;2023-04-15T06:38:32;4.00;;;2.20;;
19854;SDS011;10088;47.946;2.532;2023-04-15T06:40:57;6.00;;;2.77;;
19854;SDS011;10088;47.946;2.532;2023-04-15T06:43:23;5.17;;;2.73;;
19854;SDS011;10088;47.946;2.532;2023-04-15T06:45:48;3.97;;;2.43;;
19854;SDS011;10088;47.946;2.532;2023-04-15T06:48:13;4.40;;;2.97;;
19854;SDS011;10088;47.946;2.532;2023-04-15T06:50:38;6.13;;;2.70;;
19854;SDS011;10088;47.946;2.532;2023-04-15T06:53:04;4.60;;;2.67;;
19854;SDS011;10088;47.946;2.532;2023-04-15T06:55:29;3.50;;;2.70;;
19854;SDS011;10088;47.946;2.532;2023-04-15T06:57:55;4.13;;;2.77;;
19854;SDS011;10088;47.946;2.532;2023-04-15T07:00:21;3.37;;;2.90;;
19854;SDS011;10088;47.946;2.532;2023-04-15T07:02:46;3.17;;;2.20;;
19854;SDS011;10088;47.946;2.532;2023-04-15T07:05:11;3.33;;;2.80;;
19854;SDS011;10088;47.946;2.532;2023-04-15T07:07:37;3.67;;;2.57;;
19854;SDS011;10088;47.946;2.532;2023-04-15T07:10:02;4.70;;;2.53;;
19854;SDS011;10088;47.946;2.532;2023-04-15T07:12:27;2.57;;;2.37;;
19854;SDS011;10088;47.946;2.532;2023-04-15T07:14:53;3.73;;;2.30;;
19854;SDS011;10088;47.946;2.532;2023-04-15T07:17:18;3.37;;;2.30;;
19854;SDS011;10088;47.946;2.532;2023-04-15T07:19:44;5.37;;;2.43;;
19854;SDS011;10088;47.946;2.532;2023-04-15T07:22:09;3.07;;;2.73;;
19854;SDS011;10088;47.946;2.532;2023-04-15T07:24:34;4.97;;;2.57;;
19854;SDS011;10088;47.946;2.532;2023-04-15T07:26:59;3.37;;;2.00;;
19854;SDS011;10088;47.946;2.532;2023-04-15T07:29:25;4.80;;;2.93;;
19854;SDS011;10088;47.946;2.532;2023-04-15T07:31:51;3.53;;;2.43;;
19854;SDS011;10088;47.946;2.532;2023-04-15T07:34:16;5.07;;;2.30;;
19854;SDS011;10088;47.946;2.532;2023-04-15T07:36:41;3.90;;;2.57;;
19854;SDS011;10088;47.946;2.532;2023-04-15T07:39:07;2.63;;;2.07;;
19854;SDS011;10088;47.946;2.532;2023-04-15T07:41:32;4.17;;;2.20;;
19854;SDS011;10088;47.946;2.532;2023-04-15T07:43:57;3.80;;;2.30;;
19854;SDS011;10088;47.946;2.532;2023-04-15T07:46:23;4.33;;;2.60;;
19854;SDS011;10088;47.946;2.532;2023-04-15T07:48:51;2.60;;;2.20;;
19854;SDS011;10088;47.946;2.532;2023-04-15T07:51:16;6.03;;;2.80;;
19854;SDS011;10088;47.946;2.532;2023-04-15T07:53:41;5.90;;;2.50;;
19854;SDS011;10088;47.946;2.532;2023-04-15T07:56:07;5.67;;;2.70;;
19854;SDS011;10088;47.946;2.532;2023-04-15T07:58:32;2.90;;;2.43;;
19854;SDS011;10088;47.946;2.532;2023-04-15T08:00:57;6.80;;;2.97;;
19854;SDS011;10088;47.946;2.532;2023-04-15T08:03:23;4.60;;;2.93;;
19854;SDS011;10088;47.946;2.532;2023-04-15T08:05:49;6.03;;;2.97;;
19854;SDS011;10088;47.946;2.532;2023-04-15T08:08:14;3.63;;;2.90;;
19854;SDS011;10088;47.946;2.532;2023-04-15T08:10:39;3.47;;;2.97;;
19854;SDS011;10088;47.946;2.532;2023-04-15T08:13:05;3.97;;;2.80;;
19854;SDS011;10088;47.946;2.532;2023-04-15T08:15:30;6.33;;;2.83;;
19854;SDS011;10088;47.946;2.532;2023-04-15T08:17:56;5.70;;;3.17;;
19854;SDS011;10088;47.946;2.532;2023-04-15T08:20:23;4.90;;;3.07;;
19854;SDS011;10088;47.946;2.532;2023-04-15T08:22:48;3.43;;;3.10;;
19854;SDS011;10088;47.946;2.532;2023-04-15T08:25:15;3.80;;;3.43;;
19854;SDS011;10088;47.946;2.532;2023-04-15T08:27:41;5.03;;;3.53;;
19854;SDS011;10088;47.946;2.532;2023-04-15T08:30:06;6.93;;;3.33;;
19854;SDS011;10088;47.946;2.532;2023-04-15T08:32:32;4.17;;;3.60;;
19854;SDS011;10088;47.946;2.532;2023-04-15T08:34:57;4.60;;;4.00;;
19854;SDS011;10088;47.946;2.532;2023-04-15T08:37:23;7.77;;;3.70;;
19854;SDS011;10088;47.946;2.532;2023-04-15T08:39:48;5.00;;;3.53;;
19854;SDS011;10088;47.946;2.532;2023-04-15T08:42:18;5.93;;;4.20;;
19854;SDS011;10088;47.946;2.532;2023-04-15T08:44:47;5.97;;;3.57;;
19854;SDS011;10088;47.946;2.532;2023-04-15T08:47:13;6.80;;;3.90;;
19854;SDS011;10088;47.946;2.532;2023-04-15T08:49:41;8.90;;;3.90;;
19854;SDS011;10088;47.946;2.532;2023-04-15T08:52:07;7.57;;;4.27;;
19854;SDS011;10088;47.946;2.532;2023-04-15T08:54:33;10.73;;;4.77;;
19854;SDS011;10088;47.946;2.532;2023-04-15T08:56:59;5.40;;;4.40;;
19854;SDS011;10088;47.946;2.532;2023-04-15T08:59:24;7.43;;;4.90;;
19854;SDS011;10088;47.946;2.532;2023-04-15T09:01:49;5.93;;;3.87;;
19854;SDS011;10088;47.946;2.532;2023-04-15T09:04:15;6.80;;;4.93;;
19854;SDS011;10088;47.946;2.532;2023-04-15T09:06:41;9.27;;;4.57;;
19854;SDS011;10088;47.946;2.532;2023-04-15T09:09:06;4.93;;;4.30;;
19854;SDS011;10088;47.946;2.532;2023-04-15T09:11:32;3.30;;;3.00;;
19854;SDS011;10088;47.946;2.532;2023-04-15T09:13:57;7.57;;;3.30;;
19854;SDS011;10088;47.946;2.532;2023-04-15T09:16:22;6.50;;;3.47;;
19854;SDS011;10088;47.946;2.532;2023-04-15T09:18:48;4.93;;;3.10;;
19854;SDS011;10088;47.946;2.532;2023-04-15T09:21:14;4.00;;;3.23;;
19854;SDS011;10088;47.946;2.532;2023-04-15T09:23:56;4.40;;;3.07;;
19854;SDS011;10088;47.946;2.532;2023-04-15T09:26:35;4.47;;;2.77;;
19854;SDS011;10088;47.946;2.532;2023-04-15T09:29:04;6.13;;;3.10;;
19854;SDS011;10088;47.946;2.532;2023-04-15T09:31:31;4.40;;;2.90;;
19854;SDS011;10088;47.946;2.532;2023-04-15T09:33:57;3.87;;;3.20;;
19854;SDS011;10088;47.946;2.532;2023-04-15T09:36:22;5.03;;;3.40;;
19854;SDS011;10088;47.946;2.532;2023-04-15T09:38:56;7.27;;;3.67;;
19854;SDS011;10088;47.946;2.532;2023-04-15T09:41:21;4.33;;;3.20;;
19854;SDS011;10088;47.946;2.532;2023-04-15T09:43:47;5.00;;;2.97;;
19854;SDS011;10088;47.946;2.532;2023-04-15T09:46:12;6.07;;;3.60;;
19854;SDS011;10088;47.946;2.532;2023-04-15T09:48:37;6.83;;;3.70;;
19854;SDS011;10088;47.946;2.532;2023-04-15T09:51:03;5.30;;;3.20;;
19854;SDS011;10088;47.946;2.532;2023-04-15T09:53:28;5.60;;;3.27;;
19854;SDS011;10088;47.946;2.532;2023-04-15T09:55:58;5.47;;;2.87;;
19854;SDS011;10088;47.946;2.532;2023-04-15T09:58:28;5.43;;;2.97;;
19854;SDS011;10088;47.946;2.532;2023-04-15T10:00:54;4.80;;;2.93;;
19854;SDS011;10088;47.946;2.532;2023-04-15T10:03:24;6.30;;;2.90;;
19854;SDS011;10088;47.946;2.532;2023-04-15T10:05:54;4.63;;;2.60;;
19854;SDS011;10088;47.946;2.532;2023-04-15T10:08:23;3.90;;;2.40;;
19854;SDS011;10088;47.946;2.532;2023-04-15T10:10:52;3.73;;;2.20;;
19854;SDS011;10088;47.946;2.532;2023-04-15T10:13:22;3.17;;;2.17;;
19854;SDS011;10088;47.946;2.532;2023-04-15T10:16:04;4.83;;;2.20;;
19854;SDS011;10088;47.946;2.532;2023-04-15T10:18:29;4.53;;;2.40;;
19854;SDS011;10088;47.946;2.532;2023-04-15T10:20:56;2.77;;;2.20;;
19854;SDS011;10088;47.946;2.532;2023-04-15T10:23:22;4.97;;;2.57;;
19854;SDS011;10088;47.946;2.532;2023-04-15T10:25:50;5.43;;;2.50;;
19854;SDS011;10088;47.946;2.532;2023-04-15T10:28:16;3.27;;;2.13;;
19854;SDS011;10088;47.946;2.532;2023-04-15T10:30:41;4.17;;;2.20;;
19854;SDS011;10088;47.946;2.532;2023-04-15T10:33:07;5.60;;;2.00;;
19854;SDS011;10088;47.946;2.532;2023-04-15T10:35:33;2.73;;;2.17;;
19854;SDS011;10088;47.946;2.532;2023-04-15T10:37:59;3.20;;;2.17;;
19854;SDS011;10088;47.946;2.532;2023-04-15T10:42:59;2.53;;;1.93;;
19854;SDS011;10088;47.946;2.532;2023-04-15T10:45:32;4.20;;;1.80;;
19854;SDS011;10088;47.946;2.532;2023-04-15T10:48:00;7.10;;;2.43;;
19854;SDS011;10088;47.946;2.532;2023-04-15T10:50:25;3.00;;;1.87;;
19854;SDS011;10088;47.946;2.532;2023-04-15T10:52:52;2.73;;;1.63;;
19854;SDS011;10088;47.946;2.532;2023-04-15T10:55:18;3.43;;;1.63;;
19854;SDS011;10088;47.946;2.532;2023-04-15T10:57:44;2.00;;;1.73;;
19854;SDS011;10088;47.946;2.532;2023-04-15T11:00:13;2.70;;;1.53;;
19854;SDS011;10088;47.946;2.532;2023-04-15T11:05:04;3.83;;;1.40;;
19854;SDS011;10088;47.946;2.532;2023-04-15T11:10:03;4.67;;;1.70;;
19854;SDS011;10088;47.946;2.532;2023-04-15T11:12:35;5.13;;;1.70;;
19854;SDS011;10088;47.946;2.532;2023-04-15T11:17:44;2.07;;;1.40;;
19854;SDS011;10088;47.946;2.532;2023-04-15T11:20:13;2.97;;;1.97;;
19854;SDS011;10088;47.946;2.532;2023-04-15T11:22:45;4.10;;;1.50;;
19854;SDS011;10088;47.946;2.532;2023-04-15T11:25:20;2.50;;;2.00;;
19854;SDS011;10088;47.946;2.532;2023-04-15T11:27:45;3.33;;;1.47;;
19854;SDS011;10088;47.946;2.532;2023-04-15T11:30:21;3.30;;;2.00;;
19854;SDS011;10088;47.946;2.532;2023-04-15T11:32:50;4.83;;;1.13;;
19854;SDS011;10088;47.946;2.532;2023-04-15T11:35:16;2.07;;;1.33;;
19854;SDS011;10088;47.946;2.532;2023-04-15T11:37:42;3.13;;;1.63;;
19854;SDS011;10088;47.946;2.532;2023-04-15T11:40:08;2.00;;;1.40;;
19854;SDS011;10088;47.946;2.532;2023-04-15T11:42:33;4.67;;;1.37;;
19854;SDS011;10088;47.946;2.532;2023-04-15T11:47:34;3.30;;;1.30;;
19854;SDS011;10088;47.946;2.532;2023-04-15T11:50:12;2.03;;;1.43;;
19854;SDS011;10088;47.946;2.532;2023-04-15T11:52:37;3.23;;;1.10;;
19854;SDS011;10088;47.946;2.532;2023-04-15T11:55:03;2.00;;;1.20;;
19854;SDS011;10088;47.946;2.532;2023-04-15T11:57:31;2.10;;;0.90;;
19854;SDS011;10088;47.946;2.532;2023-04-15T11:59:56;2.13;;;1.10;;
19854;SDS011;10088;47.946;2.532;2023-04-15T12:02:29;2.20;;;1.20;;
19854;SDS011;10088;47.946;2.532;2023-04-15T12:05:01;2.93;;;1.00;;
19854;SDS011;10088;47.946;2.532;2023-04-15T12:07:27;1.70;;;1.10;;
19854;SDS011;10088;47.946;2.532;2023-04-15T12:09:56;2.23;;;1.20;;
19854;SDS011;10088;47.946;2.532;2023-04-15T12:12:25;1.73;;;1.10;;
19854;SDS011;10088;47.946;2.532;2023-04-15T12:14:51;2.03;;;1.20;;
19854;SDS011;10088;47.946;2.532;2023-04-15T12:17:16;1.87;;;1.03;;
19854;SDS011;10088;47.946;2.532;2023-04-15T12:19:42;2.33;;;1.17;;
19854;SDS011;10088;47.946;2.532;2023-04-15T12:22:12;2.10;;;1.20;;
19854;SDS011;10088;47.946;2.532;2023-04-15T12:24:40;1.53;;;1.30;;
19854;SDS011;10088;47.946;2.532;2023-04-15T12:27:07;2.67;;;1.40;;
19854;SDS011;10088;47.946;2.532;2023-04-15T12:29:33;1.20;;;1.10;;
19854;SDS011;10088;47.946;2.532;2023-04-15T12:32:06;2.30;;;1.20;;
19854;SDS011;10088;47.946;2.532;2023-04-15T12:34:32;2.10;;;1.90;;
19854;SDS011;10088;47.946;2.532;2023-04-15T12:36:59;4.30;;;1.33;;
19854;SDS011;10088;47.946;2.532;2023-04-15T12:39:25;1.23;;;0.90;;
19854;SDS011;10088;47.946;2.532;2023-04-15T12:41:50;3.20;;;1.03;;
19854;SDS011;10088;47.946;2.532;2023-04-15T12:44:16;1.13;;;1.00;;
19854;SDS011;10088;47.946;2.532;2023-04-15T12:46:41;3.17;;;0.90;;
19854;SDS011;10088;47.946;2.532;2023-04-15T12:49:07;3.03;;;1.10;;
19854;SDS011;10088;47.946;2.532;2023-04-15T12:51:33;2.50;;;1.30;;
19854;SDS011;10088;47.946;2.532;2023-04-15T12:53:58;1.33;;;1.23;;
19854;SDS011;10088;47.946;2.532;2023-04-15T12:56:24;1.57;;;0.90;;
19854;SDS011;10088;47.946;2.532;2023-04-15T12:58:49;2.70;;;0.90;;
19854;SDS011;10088;47.946;2.532;2023-04-15T13:01:15;1.43;;;0.90;;
19854;SDS011;10088;47.946;2.532;2023-04-15T13:03:40;1.97;;;1.10;;
19854;SDS011;10088;47.946;2.532;2023-04-15T13:06:05;1.57;;;1.30;;
19854;SDS011;10088;47.946;2.532;2023-04-15T13:08:31;3.03;;;1.00;;
19854;SDS011;10088;47.946;2.532;2023-04-15T13:10:56;1.27;;;0.80;;
19854;SDS011;10088;47.946;2.532;2023-04-15T13:13:22;0.70;;;0.60;;
19854;SDS011;10088;47.946;2.532;2023-04-15T13:15:47;1.63;;;0.70;;
19854;SDS011;10088;47.946;2.532;2023-04-15T13:18:12;1.10;;;1.00;;
19854;SDS011;10088;47.946;2.532;2023-04-15T13:20:38;1.53;;;1.00;;
19854;SDS011;10088;47.946;2.532;2023-04-15T13:23:03;4.20;;;0.90;;
19854;SDS011;10088;47.946;2.532;2023-04-15T13:25:28;1.27;;;0.77;;
19854;SDS011;10088;47.946;2.532;2023-04-15T13:27:53;0.90;;;0.80;;
19854;SDS011;10088;47.946;2.532;2023-04-15T13:30:19;2.73;;;1.20;;
19854;SDS011;10088;47.946;2.532;2023-04-15T13:32:44;1.80;;;1.10;;
19854;SDS011;10088;47.946;2.532;2023-04-15T13:35:10;1.50;;;1.30;;
19854;SDS011;10088;47.946;2.532;2023-04-15T13:37:35;2.10;;;1.30;;
19854;SDS011;10088;47.946;2.532;2023-04-15T13:40:00;1.37;;;1.00;;
19854;SDS011;10088;47.946;2.532;2023-04-15T13:42:25;1.17;;;1.03;;
19854;SDS011;10088;47.946;2.532;2023-04-15T13:44:51;1.10;;;1.10;;
19854;SDS011;10088;47.946;2.532;2023-04-15T13:47:20;1.73;;;1.13;;
19854;SDS011;10088;47.946;2.532;2023-04-15T13:49:45;1.97;;;1.20;;
19854;SDS011;10088;47.946;2.532;2023-04-15T13:52:11;1.60;;;1.20;;
19854;SDS011;10088;47.946;2.532;2023-04-15T13:54:37;1.00;;;0.90;;
19854;SDS011;10088;47.946;2.532;2023-04-15T13:57:02;1.67;;;1.37;;
19854;SDS011;10088;47.946;2.532;2023-04-15T13:59:27;1.33;;;1.20;;
19854;SDS011;10088;47.946;2.532;2023-04-15T14:01:52;1.50;;;0.90;;
19854;SDS011;10088;47.946;2.532;2023-04-15T14:04:18;1.37;;;1.27;;
19854;SDS011;10088;47.946;2.532;2023-04-15T14:06:43;1.40;;;1.17;;
19854;SDS011;10088;47.946;2.532;2023-04-15T14:09:08;3.37;;;1.10;;
19854;SDS011;10088;47.946;2.532;2023-04-15T14:11:34;1.97;;;1.30;;
19854;SDS011;10088;47.946;2.532;2023-04-15T14:14:00;1.20;;;1.10;;
19854;SDS011;10088;47.946;2.532;2023-04-15T14:16:26;1.60;;;1.10;;
19854;SDS011;10088;47.946;2.532;2023-04-15T14:18:51;1.53;;;1.20;;
19854;SDS011;10088;47.946;2.532;2023-04-15T14:21:17;2.20;;;1.17;;
19854;SDS011;10088;47.946;2.532;2023-04-15T14:23:42;1.70;;;1.20;;
19854;SDS011;10088;47.946;2.532;2023-04-15T14:26:08;1.17;;;0.97;;
19854;SDS011;10088;47.946;2.532;2023-04-15T14:28:33;1.80;;;1.00;;
19854;SDS011;10088;47.946;2.532;2023-04-15T14:30:58;2.73;;;1.30;;
19854;SDS011;10088;47.946;2.532;2023-04-15T14:33:23;2.70;;;1.63;;
19854;SDS011;10088;47.946;2.532;2023-04-15T14:35:49;2.40;;;1.50;;
19854;SDS011;10088;47.946;2.532;2023-04-15T14:38:15;1.17;;;1.07;;
19854;SDS011;10088;47.946;2.532;2023-04-15T14:40:40;2.47;;;1.17;;
19854;SDS011;10088;47.946;2.532;2023-04-15T14:43:05;2.20;;;1.40;;
19854;SDS011;10088;47.946;2.532;2023-04-15T14:45:31;2.57;;;1.40;;
19854;SDS011;10088;47.946;2.532;2023-04-15T14:47:56;3.00;;;1.50;;
19854;SDS011;10088;47.946;2.532;2023-04-15T14:50:21;1.70;;;1.53;;
19854;SDS011;10088;47.946;2.532;2023-04-15T14:52:47;2.90;;;1.40;;